createdAt,value
2023-01-28T00:06:09.659Z,96489.41
2023-01-28T00:16:13.463Z,96476.25
2023-01-28T00:26:16.166Z,96474.47
2023-01-28T00:36:20.792Z,96472.94
2023-01-28T00:46:23.752Z,96464.16
2023-01-28T00:56:27.626Z,96454.94
2023-01-28T01:06:30.778Z,96465.63
2023-01-28T01:16:36.140Z,96470.38
2023-01-28T01:26:38.536Z,96476.63
2023-01-28T01:36:43.957Z,96473.03
2023-01-28T01:46:47.583Z,96476.47
2023-01-28T01:56:52.086Z,96483.88
2023-01-28T02:06:54.571Z,96492.41
2023-01-28T02:16:58.780Z,96487.31
2023-01-28T02:27:12.359Z,96493.69
2023-01-28T02:37:18.318Z,96488.13
2023-01-28T02:47:38.445Z,96490.75
2023-01-28T02:57:47.122Z,96486.63
2023-01-28T03:07:50.532Z,96491.91
2023-01-28T03:18:15.256Z,96495.03
2023-01-28T03:28:37.116Z,96496.00
2023-01-28T03:38:42.997Z,96505.06
2023-01-28T03:48:45.824Z,96511.78
2023-01-28T03:58:56.361Z,96517.69
2023-01-28T04:09:00.103Z,96520.66
2023-01-28T04:19:03.911Z,96523.47
2023-01-28T04:29:06.307Z,96525.25
2023-01-28T04:39:10.069Z,96538.59
2023-01-28T04:49:12.472Z,96547.94
2023-01-28T04:59:16.323Z,96556.16
2023-01-28T05:09:18.746Z,96552.72
2023-01-28T05:19:22.575Z,96554.03
2023-01-28T05:29:25.066Z,96555.31
2023-01-28T05:39:29.001Z,96553.06
2023-01-28T05:49:31.420Z,96561.41
2023-01-28T05:59:35.234Z,96572.09
2023-01-28T06:09:37.757Z,96579.69
2023-01-28T06:19:41.524Z,96592.47
2023-01-28T06:29:43.955Z,96599.25
2023-01-28T06:39:47.671Z,96606.78
2023-01-28T06:49:50.109Z,96629.16
2023-01-28T06:59:53.914Z,96626.19
2023-01-28T07:09:56.368Z,96634.94
2023-01-28T07:20:00.163Z,96630.13
2023-01-28T07:30:02.765Z,96642.47
2023-01-28T07:40:07.200Z,96653.47
2023-01-28T07:50:10.418Z,96659.25
2023-01-28T08:00:15.344Z,96669.91
2023-01-28T08:10:18.591Z,96679.63
2023-01-28T08:20:22.305Z,96685.56
2023-01-28T08:30:24.766Z,96685.72
2023-01-28T08:40:28.610Z,96691.97
2023-01-28T08:50:32.901Z,96703.00
2023-01-28T09:00:39.055Z,96709.09
2023-01-28T09:10:42.208Z,96710.75
2023-01-28T09:20:46.241Z,96725.69
2023-01-28T09:30:48.782Z,96724.72
2023-01-28T09:40:52.618Z,96727.69
2023-01-28T09:50:55.728Z,96735.09
2023-01-28T10:01:03.441Z,96749.06
2023-01-28T10:11:12.161Z,96735.03
2023-01-28T10:21:18.987Z,96738.97
2023-01-28T10:31:22.058Z,96737.50
2023-01-28T10:41:26.847Z,96731.97
2023-01-28T10:51:33.275Z,96724.81
2023-01-28T11:01:45.543Z,96718.88
2023-01-28T11:11:47.996Z,96731.59
2023-01-28T11:21:52.523Z,96717.38
2023-01-28T11:31:55.231Z,96732.50
2023-01-28T11:42:11.855Z,96730.81
2023-01-28T11:52:18.210Z,96736.59
2023-01-28T12:02:29.579Z,96731.22
2023-01-28T12:12:44.088Z,96728.03
2023-01-28T12:23:04.431Z,96728.72
2023-01-28T12:33:17.507Z,96726.13
2023-01-28T12:43:22.297Z,96722.56
2023-01-28T12:53:29.507Z,96736.38
2023-01-28T13:03:36.421Z,96723.53
2023-01-28T13:13:42.168Z,96728.63
2023-01-28T13:23:45.938Z,96729.75
2023-01-28T13:34:01.771Z,96731.59
2023-01-28T13:44:04.221Z,96730.25
2023-01-28T13:54:11.204Z,96737.03
2023-01-28T14:04:36.790Z,96728.72
2023-01-28T14:14:55.002Z,96742.19
2023-01-28T14:25:01.030Z,96755.56
2023-01-28T14:35:09.984Z,96771.28
2023-01-28T14:45:20.623Z,96770.63
2023-01-28T14:55:30.788Z,96767.84
2023-01-28T15:05:34.511Z,96781.66
2023-01-28T15:15:39.548Z,96796.50
2023-01-28T15:25:42.051Z,96798.78
2023-01-28T15:35:50.285Z,96816.41
2023-01-28T15:45:55.337Z,96828.25
2023-01-28T15:56:06.564Z,96847.84
2023-01-28T16:06:10.198Z,96845.72
2023-01-28T16:16:14.132Z,96840.09
2023-01-28T16:26:24.434Z,96851.00
2023-01-28T16:36:28.274Z,96874.06
2023-01-28T16:46:34.205Z,96876.84
2023-01-28T16:56:46.836Z,96871.56
2023-01-28T17:06:49.516Z,96877.84
2023-01-28T17:16:55.407Z,96875.16
2023-01-28T17:26:57.835Z,96877.34
2023-01-28T17:37:01.603Z,96891.28
2023-01-28T17:47:04.233Z,96902.00
2023-01-28T17:57:11.104Z,96909.28
2023-01-28T18:07:13.701Z,96903.59
2023-01-28T18:17:17.518Z,96914.22
2023-01-28T18:27:23.123Z,96914.22
2023-01-28T18:37:26.925Z,96931.50
2023-01-28T18:47:29.326Z,96923.97
2023-01-28T18:57:33.139Z,96914.25
2023-01-28T19:07:35.529Z,96923.16
2023-01-28T19:17:39.363Z,96933.84
2023-01-28T19:27:41.846Z,96944.16
2023-01-28T19:37:46.032Z,96944.22
2023-01-28T19:47:48.521Z,96924.59
2023-01-28T19:57:52.320Z,96935.44
2023-01-28T20:07:54.722Z,96935.91
2023-01-28T20:17:58.524Z,96941.19
2023-01-28T20:28:01.678Z,96944.97
2023-01-28T20:38:05.505Z,96955.19
2023-01-28T20:48:08.052Z,96963.81
2023-01-28T20:58:13.137Z,96973.31
2023-01-28T21:08:16.118Z,96993.25
2023-01-28T21:18:20.013Z,97002.91
2023-01-28T21:28:22.439Z,96998.97
2023-01-28T21:38:26.252Z,96992.63
2023-01-28T21:48:28.938Z,96994.00
2023-01-28T21:58:49.940Z,96993.84
2023-01-28T22:08:52.552Z,96997.91
2023-01-28T22:18:56.399Z,96995.66
2023-01-28T22:28:58.819Z,96995.47
2023-01-28T22:39:03.280Z,96999.13
2023-01-28T22:49:06.225Z,96994.63
2023-01-28T22:59:10.699Z,96993.59
2023-01-28T23:09:13.089Z,96989.34
2023-01-28T23:19:34.981Z,97000.41
2023-01-28T23:29:37.409Z,97005.31
2023-01-28T23:39:41.539Z,97002.41
2023-01-28T23:49:43.928Z,96989.34
2023-01-28T23:59:47.784Z,97001.06
